createdAt,value
2018-12-22T00:00:08.230Z,7.70
2018-12-22T00:02:35.200Z,7.70
2018-12-22T00:05:02.000Z,7.70
2018-12-22T00:07:28.624Z,7.70
2018-12-22T00:09:55.201Z,7.70
2018-12-22T00:12:21.705Z,7.60
2018-12-22T00:14:48.473Z,7.70
2018-12-22T00:17:15.059Z,7.60
2018-12-22T00:19:41.532Z,7.60
2018-12-22T00:22:08.067Z,7.60
2018-12-22T00:24:34.739Z,7.60
2018-12-22T00:27:01.355Z,7.50
2018-12-22T00:29:27.933Z,7.60
2018-12-22T00:31:54.549Z,7.60
2018-12-22T00:34:21.060Z,7.60
2018-12-22T00:36:47.546Z,7.50
2018-12-22T00:39:14.121Z,7.50
2018-12-22T00:41:40.842Z,7.60
2018-12-22T00:44:07.317Z,7.50
2018-12-22T00:46:33.813Z,7.60
2018-12-22T00:49:00.400Z,7.50
2018-12-22T00:51:26.787Z,7.50
2018-12-22T00:53:53.446Z,7.50
2018-12-22T00:56:19.989Z,7.50
2018-12-22T00:58:47.546Z,7.50
2018-12-22T01:01:14.142Z,7.50
2018-12-22T01:03:40.610Z,7.50
2018-12-22T01:06:07.128Z,7.40
2018-12-22T01:08:33.601Z,7.40
2018-12-22T01:11:00.149Z,7.50
2018-12-22T01:13:26.664Z,7.40
2018-12-22T01:15:53.285Z,7.40
2018-12-22T01:18:19.884Z,7.40
2018-12-22T01:20:46.512Z,7.40
2018-12-22T01:23:13.046Z,7.40
2018-12-22T01:25:39.516Z,7.40
2018-12-22T01:28:06.139Z,7.40
2018-12-22T01:30:32.687Z,7.40
2018-12-22T01:32:59.210Z,7.40
2018-12-22T01:35:25.791Z,7.40
2018-12-22T01:37:52.389Z,7.40
2018-12-22T01:40:19.244Z,7.40
2018-12-22T01:42:45.843Z,7.40
2018-12-22T01:45:12.437Z,7.40
2018-12-22T01:47:39.055Z,7.40
2018-12-22T01:50:06.443Z,7.40
2018-12-22T01:52:33.048Z,7.40
2018-12-22T01:54:59.625Z,7.30
2018-12-22T01:57:26.234Z,7.30
2018-12-22T01:59:52.595Z,7.30
2018-12-22T02:02:19.110Z,7.40
2018-12-22T02:04:46.505Z,7.40
2018-12-22T02:07:13.399Z,7.40
2018-12-22T02:09:39.960Z,7.40
2018-12-22T02:12:07.329Z,7.40
2018-12-22T02:14:33.796Z,7.50
2018-12-22T02:17:00.411Z,7.50
2018-12-22T02:19:27.083Z,7.30
2018-12-22T02:21:53.727Z,7.30
2018-12-22T02:24:20.402Z,7.30
2018-12-22T02:26:47.694Z,7.30
2018-12-22T02:29:14.444Z,7.30
2018-12-22T02:31:41.044Z,7.20
2018-12-22T02:34:07.612Z,7.20
2018-12-22T02:36:34.515Z,7.30
2018-12-22T02:39:01.073Z,7.10
2018-12-22T02:41:27.616Z,7.20
2018-12-22T02:43:54.095Z,7.30
2018-12-22T02:46:20.594Z,7.30
2018-12-22T02:48:47.067Z,7.20
2018-12-22T02:51:13.529Z,7.30
2018-12-22T02:53:40.064Z,7.20
2018-12-22T02:56:06.516Z,7.20
2018-12-22T02:58:33.103Z,7.10
2018-12-22T03:00:59.585Z,7.10
2018-12-22T03:03:26.381Z,7.20
2018-12-22T03:05:52.954Z,7.00
2018-12-22T03:08:19.443Z,7.00
2018-12-22T03:10:46.130Z,7.00
2018-12-22T03:13:12.626Z,7.00
2018-12-22T03:15:39.189Z,7.00
2018-12-22T03:18:05.769Z,7.00
2018-12-22T03:20:32.438Z,7.00
2018-12-22T03:22:58.939Z,7.10
2018-12-22T03:25:25.398Z,7.00
2018-12-22T03:27:51.907Z,6.90
2018-12-22T03:30:18.485Z,6.90
2018-12-22T03:32:45.095Z,6.90
2018-12-22T03:35:11.687Z,6.90
2018-12-22T03:37:38.183Z,7.00
2018-12-22T03:40:06.519Z,7.00
2018-12-22T03:42:33.158Z,7.00
2018-12-22T03:44:59.747Z,6.90
2018-12-22T03:47:26.272Z,6.80
2018-12-22T03:49:52.860Z,6.90
2018-12-22T03:52:19.458Z,6.80
2018-12-22T03:54:46.049Z,6.80
2018-12-22T03:57:12.682Z,6.90
2018-12-22T03:59:39.434Z,6.90
2018-12-22T04:02:06.047Z,6.80
2018-12-22T04:04:32.720Z,6.70
2018-12-22T04:06:59.326Z,6.70
2018-12-22T04:09:25.906Z,6.70
2018-12-22T04:11:52.412Z,6.80
2018-12-22T04:14:19.476Z,6.70
2018-12-22T04:16:47.020Z,6.70
2018-12-22T04:19:13.687Z,6.70
2018-12-22T04:21:40.248Z,6.80
2018-12-22T04:24:07.530Z,6.70
2018-12-22T04:26:34.109Z,6.70
2018-12-22T04:29:01.530Z,6.90
2018-12-22T04:31:28.102Z,6.80
2018-12-22T04:33:54.690Z,6.70
2018-12-22T04:36:21.156Z,6.60
2018-12-22T04:38:47.865Z,6.70
2018-12-22T04:41:14.467Z,6.70
2018-12-22T04:43:40.921Z,6.60
2018-12-22T04:46:07.397Z,6.60
2018-12-22T04:48:34.082Z,6.50
2018-12-22T04:51:01.416Z,6.40
2018-12-22T04:53:28.312Z,6.40
2018-12-22T04:55:54.911Z,6.40
2018-12-22T04:58:21.496Z,6.50
2018-12-22T05:00:48.066Z,6.40
2018-12-22T05:03:14.570Z,6.30
2018-12-22T05:05:41.046Z,6.20
2018-12-22T05:08:07.539Z,6.20
2018-12-22T05:10:35.712Z,6.40
2018-12-22T05:13:02.721Z,6.50
2018-12-22T05:15:30.894Z,6.40
2018-12-22T05:17:57.589Z,6.30
2018-12-22T05:20:24.853Z,6.30
2018-12-22T05:22:51.451Z,6.30
2018-12-22T05:25:21.523Z,6.30
2018-12-22T05:27:50.001Z,6.20
2018-12-22T05:30:16.658Z,6.20
2018-12-22T05:32:43.152Z,6.10
2018-12-22T05:35:09.727Z,6.10
2018-12-22T05:37:43.355Z,6.20
2018-12-22T05:40:10.228Z,6.20
2018-12-22T05:42:37.541Z,6.20
2018-12-22T05:45:04.344Z,6.20
2018-12-22T05:47:30.837Z,6.10
2018-12-22T05:49:57.305Z,6.10
2018-12-22T05:52:23.798Z,6.10
2018-12-22T05:54:50.280Z,6.10
2018-12-22T05:57:16.905Z,6.10
2018-12-22T05:59:43.458Z,6.10
2018-12-22T06:02:09.995Z,5.90
2018-12-22T06:04:36.633Z,6.00
2018-12-22T06:07:03.445Z,6.10
2018-12-22T06:09:30.038Z,6.00
2018-12-22T06:11:56.642Z,6.00
2018-12-22T06:14:23.310Z,6.00
2018-12-22T06:16:49.763Z,6.10
2018-12-22T06:19:16.361Z,6.00
2018-12-22T06:21:42.835Z,5.90
2018-12-22T06:24:09.348Z,6.00
2018-12-22T06:26:36.165Z,6.00
2018-12-22T06:29:02.777Z,6.00
2018-12-22T06:31:29.444Z,5.90
2018-12-22T06:33:56.186Z,5.80
2018-12-22T06:36:22.845Z,5.80
2018-12-22T06:38:51.039Z,5.90
2018-12-22T06:41:17.732Z,5.90
2018-12-22T06:43:44.230Z,5.80
2018-12-22T06:46:10.801Z,5.90
2018-12-22T06:48:37.293Z,5.80
2018-12-22T06:51:03.867Z,5.90
2018-12-22T06:53:30.360Z,5.80
2018-12-22T06:55:56.932Z,5.80
2018-12-22T06:58:23.544Z,5.80
2018-12-22T07:00:50.058Z,5.80
2018-12-22T07:03:16.546Z,5.90
2018-12-22T07:05:43.050Z,5.90
2018-12-22T07:08:09.646Z,5.80
2018-12-22T07:10:36.310Z,5.80
2018-12-22T07:13:02.913Z,5.70
2018-12-22T07:15:29.499Z,5.90
2018-12-22T07:17:56.198Z,6.00
2018-12-22T07:20:22.674Z,6.00
2018-12-22T07:22:49.278Z,6.00
2018-12-22T07:25:15.890Z,6.00
2018-12-22T07:27:42.550Z,6.00
2018-12-22T07:30:09.630Z,5.90
2018-12-22T07:32:36.748Z,6.00
2018-12-22T07:35:04.230Z,6.10
2018-12-22T07:37:30.737Z,5.90
2018-12-22T07:39:57.226Z,6.10
2018-12-22T07:42:23.726Z,6.10
2018-12-22T07:44:50.318Z,5.70
2018-12-22T07:47:16.775Z,5.60
2018-12-22T07:49:43.282Z,5.70
2018-12-22T07:52:10.452Z,5.60
2018-12-22T07:54:37.035Z,5.50
2018-12-22T07:57:04.150Z,5.60
2018-12-22T07:59:30.844Z,5.70
2018-12-22T08:01:59.027Z,5.70
2018-12-22T08:04:25.635Z,5.80
2018-12-22T08:06:52.210Z,5.70
2018-12-22T08:09:18.705Z,5.70
2018-12-22T08:11:45.273Z,5.50
2018-12-22T08:14:11.772Z,5.50
2018-12-22T08:16:38.342Z,5.50
2018-12-22T08:19:05.461Z,5.40
2018-12-22T08:21:32.142Z,5.50
2018-12-22T08:23:58.726Z,5.40
2018-12-22T08:26:25.407Z,5.50
2018-12-22T08:28:51.937Z,5.60
2018-12-22T08:31:18.431Z,5.70
2018-12-22T08:33:45.041Z,5.70
2018-12-22T08:36:11.617Z,5.70
2018-12-22T08:38:38.136Z,5.70
2018-12-22T08:41:04.802Z,5.60
2018-12-22T08:43:31.519Z,5.50
2018-12-22T08:45:58.078Z,5.40
2018-12-22T08:48:24.669Z,5.30
2018-12-22T08:50:51.235Z,5.30
2018-12-22T08:53:18.034Z,5.40
2018-12-22T08:55:46.198Z,5.60
2018-12-22T08:58:13.008Z,5.50
2018-12-22T09:00:39.490Z,5.60
2018-12-22T09:03:06.106Z,5.70
2018-12-22T09:05:32.661Z,5.80
2018-12-22T09:07:59.277Z,5.80
2018-12-22T09:10:25.784Z,5.70
2018-12-22T09:12:52.346Z,5.80
2018-12-22T09:15:18.858Z,5.80
2018-12-22T09:17:45.327Z,5.80
2018-12-22T09:20:11.817Z,6.00
2018-12-22T09:22:38.587Z,5.90
2018-12-22T09:25:06.316Z,5.90
2018-12-22T09:27:34.090Z,5.80
2018-12-22T09:30:00.775Z,6.00
2018-12-22T09:32:27.240Z,5.90
2018-12-22T09:34:53.742Z,5.80
2018-12-22T09:37:20.209Z,5.70
2018-12-22T09:39:47.396Z,5.50
2018-12-22T09:42:14.174Z,5.60
2018-12-22T09:44:40.766Z,5.60
2018-12-22T09:47:07.294Z,5.70
2018-12-22T09:49:33.756Z,5.60
2018-12-22T09:52:00.325Z,5.70
2018-12-22T09:54:26.999Z,5.70
2018-12-22T09:56:53.681Z,5.90
2018-12-22T09:59:20.470Z,5.80
2018-12-22T10:01:46.941Z,5.90
2018-12-22T10:04:13.484Z,5.90
2018-12-22T10:06:39.968Z,5.80
2018-12-22T10:09:06.726Z,5.90
2018-12-22T10:11:33.309Z,5.80
2018-12-22T10:13:59.911Z,5.80
2018-12-22T10:16:26.517Z,5.70
2018-12-22T10:18:53.084Z,5.70
2018-12-22T10:21:19.613Z,5.60
2018-12-22T10:23:46.244Z,5.60
2018-12-22T10:26:12.915Z,5.60
2018-12-22T10:28:39.477Z,5.70
2018-12-22T10:31:06.111Z,5.70
2018-12-22T10:33:32.699Z,5.80
2018-12-22T10:35:59.293Z,5.80
2018-12-22T10:38:25.898Z,5.90
2018-12-22T10:40:52.410Z,5.80
2018-12-22T10:43:18.923Z,5.70
2018-12-22T10:45:45.487Z,5.70
2018-12-22T10:48:11.941Z,6.00
2018-12-22T10:50:38.553Z,6.00
2018-12-22T10:53:05.118Z,5.90
2018-12-22T10:55:31.751Z,5.90
2018-12-22T10:57:59.986Z,5.90
2018-12-22T11:00:27.125Z,5.80
2018-12-22T11:02:53.786Z,5.70
2018-12-22T11:05:20.400Z,5.70
2018-12-22T11:07:46.999Z,5.90
2018-12-22T11:10:15.741Z,6.00
2018-12-22T11:12:42.143Z,6.00
2018-12-22T11:15:08.878Z,5.90
2018-12-22T11:17:35.377Z,5.90
2018-12-22T11:20:04.202Z,5.80
2018-12-22T11:22:30.808Z,6.00
2018-12-22T11:24:57.701Z,5.90
2018-12-22T11:27:24.202Z,5.80
2018-12-22T11:29:51.474Z,6.00
2018-12-22T11:32:18.094Z,6.10
2018-12-22T11:34:44.671Z,6.10
2018-12-22T11:37:11.146Z,6.10
2018-12-22T11:39:37.766Z,5.90
2018-12-22T11:42:04.337Z,5.90
2018-12-22T11:44:30.836Z,6.00
2018-12-22T11:47:02.033Z,6.10
2018-12-22T11:49:29.853Z,6.20
2018-12-22T11:51:56.435Z,6.20
2018-12-22T11:54:23.854Z,6.10
2018-12-22T11:56:51.180Z,6.10
2018-12-22T11:59:17.647Z,6.00
2018-12-22T12:01:44.162Z,5.90
2018-12-22T12:04:10.613Z,5.80
2018-12-22T12:06:37.187Z,5.90
2018-12-22T12:09:04.668Z,6.10
2018-12-22T12:11:31.242Z,5.90
2018-12-22T12:13:57.910Z,5.60
2018-12-22T12:16:24.689Z,5.70
2018-12-22T12:18:56.261Z,5.70
2018-12-22T12:21:22.865Z,5.90
2018-12-22T12:23:49.573Z,6.10
2018-12-22T12:26:16.253Z,5.80
2018-12-22T12:28:42.983Z,5.90
2018-12-22T12:31:09.597Z,5.90
2018-12-22T12:33:36.755Z,5.90
2018-12-22T12:36:03.373Z,6.00
2018-12-22T12:38:30.740Z,6.00
2018-12-22T12:40:57.339Z,5.80
2018-12-22T12:43:23.942Z,5.90
2018-12-22T12:45:50.656Z,6.10
2018-12-22T12:48:19.849Z,6.00
2018-12-22T12:50:47.883Z,6.00
2018-12-22T12:53:14.751Z,6.00
2018-12-22T12:55:41.389Z,6.00
2018-12-22T12:58:07.956Z,6.10
2018-12-22T13:00:34.664Z,6.10
2018-12-22T13:03:01.959Z,6.10
2018-12-22T13:05:28.620Z,6.10
2018-12-22T13:07:55.128Z,6.00
2018-12-22T13:10:21.793Z,6.20
2018-12-22T13:13:01.598Z,6.30
2018-12-22T13:15:28.308Z,6.30
2018-12-22T13:17:54.914Z,6.10
2018-12-22T13:20:23.001Z,6.10
2018-12-22T13:22:49.531Z,6.10
2018-12-22T13:25:15.991Z,5.90
2018-12-22T13:27:42.466Z,5.90
2018-12-22T13:30:11.402Z,5.90
2018-12-22T13:32:38.126Z,6.10
2018-12-22T13:35:09.833Z,6.20
2018-12-22T13:37:36.553Z,6.30
2018-12-22T13:40:09.710Z,6.10
2018-12-22T13:42:36.734Z,6.10
2018-12-22T13:45:09.701Z,6.10
2018-12-22T13:47:36.551Z,6.10
2018-12-22T13:50:07.404Z,6.20
2018-12-22T13:52:35.139Z,6.20
2018-12-22T13:55:01.677Z,6.20
2018-12-22T13:57:28.295Z,6.30
2018-12-22T13:59:54.955Z,6.10
2018-12-22T14:02:22.266Z,6.00
2018-12-22T14:04:48.838Z,5.90
2018-12-22T14:07:15.402Z,6.10
2018-12-22T14:09:41.982Z,6.00
2018-12-22T14:12:08.493Z,6.20
2018-12-22T14:14:35.127Z,6.10
2018-12-22T14:17:04.566Z,5.90
2018-12-22T14:19:31.866Z,5.90
2018-12-22T14:21:58.716Z,6.00
2018-12-22T14:24:25.959Z,6.00
2018-12-22T14:26:52.522Z,6.20
2018-12-22T14:29:19.033Z,6.20
2018-12-22T14:31:45.591Z,6.30
2018-12-22T14:34:17.045Z,6.00
2018-12-22T14:36:43.497Z,6.00
2018-12-22T14:39:10.015Z,5.90
2018-12-22T14:41:36.580Z,5.90
2018-12-22T14:44:03.192Z,5.90
2018-12-22T14:46:29.653Z,5.90
2018-12-22T14:48:56.181Z,6.00
2018-12-22T14:51:22.690Z,5.90
2018-12-22T14:53:49.198Z,6.00
2018-12-22T14:56:19.745Z,6.00
2018-12-22T14:58:46.211Z,6.10
2018-12-22T15:01:12.695Z,6.10
2018-12-22T15:03:39.411Z,6.10
2018-12-22T15:06:06.421Z,6.00
2018-12-22T15:08:33.026Z,5.90
2018-12-22T15:10:59.541Z,5.90
2018-12-22T15:13:26.017Z,5.90
2018-12-22T15:15:52.522Z,6.00
2018-12-22T15:18:19.242Z,6.10
2018-12-22T15:20:45.854Z,6.00
2018-12-22T15:23:12.381Z,6.00
2018-12-22T15:25:38.897Z,5.90
2018-12-22T15:28:05.409Z,5.90
2018-12-22T15:30:32.047Z,5.90
2018-12-22T15:32:58.763Z,6.00
2018-12-22T15:35:25.658Z,6.00
2018-12-22T15:37:52.175Z,6.00
2018-12-22T15:40:18.757Z,5.90
2018-12-22T15:42:45.261Z,5.90
2018-12-22T15:45:14.479Z,5.80
2018-12-22T15:47:43.041Z,5.90
2018-12-22T15:50:19.806Z,5.90
2018-12-22T15:52:46.374Z,6.00
2018-12-22T15:55:12.971Z,6.00
2018-12-22T15:57:39.599Z,5.90
2018-12-22T16:00:09.565Z,5.80
2018-12-22T16:02:36.030Z,5.80
2018-12-22T16:05:05.763Z,5.80
2018-12-22T16:07:32.329Z,5.80
2018-12-22T16:09:58.830Z,5.80
2018-12-22T16:12:25.458Z,5.80
2018-12-22T16:14:52.186Z,5.90
2018-12-22T16:17:18.801Z,5.90
2018-12-22T16:19:45.367Z,5.90
2018-12-22T16:22:13.558Z,5.90
2018-12-22T16:24:40.305Z,5.80
2018-12-22T16:27:07.678Z,5.90
2018-12-22T16:29:35.549Z,5.90
2018-12-22T16:32:03.332Z,5.80
2018-12-22T16:34:30.002Z,5.90
2018-12-22T16:36:57.099Z,5.90
2018-12-22T16:39:23.718Z,5.90
2018-12-22T16:41:50.500Z,5.80
2018-12-22T16:44:17.033Z,5.80
2018-12-22T16:46:43.624Z,5.80
2018-12-22T16:49:10.312Z,5.80
2018-12-22T16:51:37.101Z,5.70
2018-12-22T16:54:05.315Z,5.70
2018-12-22T16:56:32.302Z,5.80
2018-12-22T16:58:59.098Z,5.80
2018-12-22T17:01:29.692Z,5.80
2018-12-22T17:03:56.205Z,5.80
2018-12-22T17:06:22.931Z,5.80
2018-12-22T17:08:49.505Z,5.90
2018-12-22T17:11:16.631Z,5.80
2018-12-22T17:13:43.618Z,5.90
2018-12-22T17:16:10.137Z,5.80
2018-12-22T17:18:36.673Z,5.90
2018-12-22T17:21:08.614Z,5.90
2018-12-22T17:23:50.914Z,6.00
2018-12-22T17:26:19.181Z,5.80
2018-12-22T17:28:45.835Z,5.70
2018-12-22T17:31:12.560Z,5.70
2018-12-22T17:33:39.292Z,5.90
2018-12-22T17:36:06.266Z,5.90
2018-12-22T17:38:32.999Z,5.80
2018-12-22T17:41:01.270Z,5.70
2018-12-22T17:43:28.054Z,5.70
2018-12-22T17:45:56.238Z,5.80
2018-12-22T17:48:22.866Z,5.80
2018-12-22T17:50:49.369Z,5.80
2018-12-22T17:53:16.777Z,5.70
2018-12-22T17:55:44.074Z,5.80
2018-12-22T17:58:10.663Z,5.90
2018-12-22T18:00:37.298Z,5.70
2018-12-22T18:03:06.552Z,5.60
2018-12-22T18:05:33.066Z,5.70
2018-12-22T18:07:59.535Z,5.70
2018-12-22T18:10:25.927Z,5.70
2018-12-22T18:12:52.431Z,5.70
2018-12-22T18:15:22.653Z,5.80
2018-12-22T18:17:49.111Z,5.80
2018-12-22T18:20:15.621Z,5.70
2018-12-22T18:22:42.127Z,5.60
2018-12-22T18:25:15.626Z,5.50
2018-12-22T18:27:42.138Z,5.60
2018-12-22T18:30:10.762Z,5.60
2018-12-22T18:32:37.763Z,5.60
2018-12-22T18:35:06.681Z,5.60
2018-12-22T18:37:33.381Z,5.60
2018-12-22T18:39:59.905Z,5.60
2018-12-22T18:42:26.494Z,5.50
2018-12-22T18:44:53.006Z,5.60
2018-12-22T18:47:19.629Z,5.60
2018-12-22T18:49:46.183Z,5.60
2018-12-22T18:52:12.889Z,5.60
2018-12-22T18:54:39.426Z,5.50
2018-12-22T18:57:05.940Z,5.50
2018-12-22T18:59:32.550Z,5.60
2018-12-22T19:01:59.573Z,5.50
2018-12-22T19:04:27.135Z,5.60
2018-12-22T19:06:53.875Z,5.60
2018-12-22T19:09:21.842Z,5.70
2018-12-22T19:11:48.451Z,5.50
2018-12-22T19:14:15.031Z,5.70
2018-12-22T19:16:41.634Z,5.60
2018-12-22T19:19:09.065Z,5.50
2018-12-22T19:21:35.583Z,5.50
2018-12-22T19:24:03.902Z,5.50
2018-12-22T19:26:30.523Z,5.60
2018-12-22T19:28:56.997Z,5.50
2018-12-22T19:31:23.555Z,5.50
2018-12-22T19:33:53.681Z,5.60
2018-12-22T19:36:18.846Z,5.50
2018-12-22T19:38:45.411Z,5.50
2018-12-22T19:41:11.921Z,5.50
2018-12-22T19:43:38.564Z,5.50
2018-12-22T19:46:05.142Z,5.50
2018-12-22T19:48:32.538Z,5.40
2018-12-22T19:50:59.064Z,5.40
2018-12-22T19:53:25.630Z,5.40
2018-12-22T19:55:52.259Z,5.30
2018-12-22T19:58:18.910Z,5.40
2018-12-22T20:00:45.436Z,5.30
2018-12-22T20:03:12.160Z,5.20
2018-12-22T20:05:39.735Z,5.30
2018-12-22T20:08:06.397Z,5.30
2018-12-22T20:10:33.011Z,5.40
2018-12-22T20:12:59.574Z,5.40
2018-12-22T20:15:26.174Z,5.50
2018-12-22T20:17:52.827Z,5.50
2018-12-22T20:20:19.521Z,5.50
2018-12-22T20:22:46.101Z,5.50
2018-12-22T20:25:12.842Z,5.50
2018-12-22T20:27:39.469Z,5.50
2018-12-22T20:30:06.450Z,5.40
2018-12-22T20:32:33.124Z,5.40
2018-12-22T20:34:59.924Z,5.40
2018-12-22T20:37:26.642Z,5.50
2018-12-22T20:39:54.814Z,5.50
2018-12-22T20:42:21.527Z,5.40
2018-12-22T20:44:48.047Z,5.40
2018-12-22T20:47:14.686Z,5.50
2018-12-22T20:49:41.189Z,5.40
2018-12-22T20:52:07.751Z,5.50
2018-12-22T20:54:34.363Z,5.50
2018-12-22T20:57:04.508Z,5.50
2018-12-22T20:59:31.117Z,5.40
2018-12-22T21:01:57.599Z,5.60
2018-12-22T21:04:24.212Z,5.40
2018-12-22T21:06:50.707Z,5.50
2018-12-22T21:09:17.343Z,5.50
2018-12-22T21:11:43.923Z,5.60
2018-12-22T21:14:10.512Z,5.70
2018-12-22T21:16:37.035Z,5.60
2018-12-22T21:19:03.614Z,5.60
2018-12-22T21:21:30.142Z,5.60
2018-12-22T21:23:56.623Z,5.60
2018-12-22T21:26:23.242Z,5.50
2018-12-22T21:28:49.826Z,5.60
2018-12-22T21:31:16.553Z,5.60
2018-12-22T21:33:43.022Z,5.80
2018-12-22T21:36:09.544Z,5.80
2018-12-22T21:38:36.128Z,5.70
2018-12-22T21:41:02.754Z,5.70
2018-12-22T21:43:29.268Z,5.70
2018-12-22T21:45:55.781Z,5.70
2018-12-22T21:48:22.348Z,5.70
2018-12-22T21:50:48.942Z,5.80
2018-12-22T21:53:15.485Z,5.90
2018-12-22T21:55:42.057Z,5.90
2018-12-22T21:58:08.532Z,5.80
2018-12-22T22:00:35.055Z,5.80
2018-12-22T22:03:01.531Z,5.90
2018-12-22T22:05:28.161Z,5.80
2018-12-22T22:07:54.759Z,5.80
2018-12-22T22:10:21.374Z,5.80
2018-12-22T22:12:48.247Z,5.80
2018-12-22T22:15:14.982Z,5.80
2018-12-22T22:17:41.865Z,5.80
2018-12-22T22:20:08.455Z,6.00
2018-12-22T22:22:35.078Z,5.90
2018-12-22T22:25:01.959Z,5.80
2018-12-22T22:27:28.427Z,5.90
2018-12-22T22:29:55.294Z,5.90
2018-12-22T22:32:21.861Z,5.90
2018-12-22T22:34:48.339Z,6.00
2018-12-22T22:37:14.877Z,6.00
2018-12-22T22:39:41.481Z,5.90
2018-12-22T22:42:08.045Z,5.90
2018-12-22T22:44:35.729Z,5.80
2018-12-22T22:47:02.185Z,5.90
2018-12-22T22:49:28.822Z,5.80
2018-12-22T22:51:55.381Z,5.80
2018-12-22T22:54:21.896Z,5.80
2018-12-22T22:56:48.537Z,5.80
2018-12-22T22:59:15.136Z,5.80
2018-12-22T23:01:41.625Z,5.90
2018-12-22T23:04:09.885Z,6.00
2018-12-22T23:06:36.354Z,6.00
2018-12-22T23:09:05.739Z,6.00
2018-12-22T23:11:32.459Z,5.90
2018-12-22T23:13:59.027Z,6.10
2018-12-22T23:16:26.647Z,6.00
2018-12-22T23:18:53.162Z,6.00
2018-12-22T23:21:19.779Z,6.10
2018-12-22T23:23:46.337Z,6.10
2018-12-22T23:26:12.956Z,6.00
2018-12-22T23:28:39.658Z,6.00
2018-12-22T23:31:06.138Z,6.10
2018-12-22T23:33:32.658Z,6.10
2018-12-22T23:35:59.339Z,6.00
2018-12-22T23:38:25.879Z,6.10
2018-12-22T23:40:52.347Z,6.10
2018-12-22T23:43:18.883Z,6.10
2018-12-22T23:45:45.388Z,6.10
2018-12-22T23:48:11.901Z,6.20
2018-12-22T23:50:40.968Z,6.20
2018-12-22T23:53:07.643Z,6.20
2018-12-22T23:55:34.268Z,6.20
2018-12-22T23:58:01.891Z,6.30
